Glen White, West Virginia
Current Conditions -  °F | °C
As of 5:51 PM on Wednesday 26 Nov 2014 (Local Time) from KBKW Reporting Station
Moderate Fog Moderate Fog  
Wind Chill: 28°   Ceiling: 200
Heat Index: 35°   Visibility: 0.25mi
Dew Point: 33°   Wind: 9mph
Humidity: 92%   Direction: 260°W
Pressure: 29.97"   Gusts: NA
Location:  37.73°N, 81.28°W
Report Text: KBKW 262251Z AUTO 26008KT 1/4SM FG VV002 02/01 A2997 RMK AO2 RAB22E41 SLP171 P0000 T00170006
Loading
Personal Weather Stations






























Interactive Weather Map New forecast layout! Learn more

10-Day Weather Forecast

Advertisements
Track Severe Weather on mobile